createdAt,value
2023-01-31T00:01:57.090Z,8.57
2023-01-31T00:04:25.001Z,8.77
2023-01-31T00:06:53.842Z,7.53
2023-01-31T00:09:21.910Z,7.57
2023-01-31T00:11:49.763Z,8.15
2023-01-31T00:14:20.300Z,6.95
2023-01-31T00:16:49.622Z,9.68
2023-01-31T00:19:17.606Z,7.45
2023-01-31T00:21:45.775Z,6.85
2023-01-31T00:24:14.563Z,7.38
2023-01-31T00:26:42.907Z,7.65
2023-01-31T00:29:10.855Z,8.00
2023-01-31T00:31:39.970Z,8.93
2023-01-31T00:34:09.658Z,7.03
2023-01-31T00:36:38.021Z,7.70
2023-01-31T00:39:07.826Z,7.25
2023-01-31T00:41:37.493Z,7.32
2023-01-31T00:44:06.919Z,9.02
2023-01-31T00:46:35.814Z,9.27
2023-01-31T00:49:05.299Z,7.70
2023-01-31T00:51:35.225Z,8.60
2023-01-31T00:54:03.280Z,8.25
2023-01-31T00:56:31.195Z,7.22
2023-01-31T00:59:00.268Z,6.80
2023-01-31T01:01:29.987Z,7.70
2023-01-31T01:03:59.245Z,7.35
2023-01-31T01:06:28.287Z,9.40
2023-01-31T01:08:59.734Z,9.00
2023-01-31T01:11:29.632Z,7.13
2023-01-31T01:13:58.523Z,7.43
2023-01-31T01:16:28.545Z,6.97
2023-01-31T01:18:56.398Z,7.80
2023-01-31T01:21:27.098Z,7.72
2023-01-31T01:23:59.415Z,7.60
2023-01-31T01:26:29.077Z,8.57
2023-01-31T01:28:58.423Z,8.50
2023-01-31T01:31:30.409Z,8.73
2023-01-31T01:34:00.149Z,9.63
2023-01-31T01:36:29.343Z,7.38
2023-01-31T01:38:58.599Z,7.90
2023-01-31T01:41:26.537Z,7.15
2023-01-31T01:43:56.748Z,7.15
2023-01-31T01:46:28.351Z,6.55
2023-01-31T01:49:01.336Z,6.95
2023-01-31T01:51:30.992Z,11.40
2023-01-31T01:54:04.700Z,6.75
2023-01-31T01:56:37.536Z,7.63
2023-01-31T01:59:10.260Z,7.60
2023-01-31T02:01:40.391Z,6.32
2023-01-31T02:04:13.952Z,6.28
2023-01-31T02:06:42.040Z,7.20
2023-01-31T02:09:20.603Z,5.95
2023-01-31T02:11:49.122Z,7.90
2023-01-31T02:14:18.139Z,8.27
2023-01-31T02:16:46.019Z,7.78
2023-01-31T02:19:21.126Z,6.75
2023-01-31T02:22:11.776Z,7.72
2023-01-31T02:25:23.878Z,7.40
2023-01-31T02:28:13.480Z,7.95
2023-01-31T02:31:02.576Z,9.43
2023-01-31T02:33:38.101Z,8.13
2023-01-31T02:36:19.319Z,7.32
2023-01-31T02:38:58.896Z,6.28
2023-01-31T02:41:33.179Z,7.75
2023-01-31T02:44:26.602Z,7.43
2023-01-31T02:46:59.888Z,7.68
2023-01-31T02:49:39.372Z,6.28
2023-01-31T02:52:20.330Z,7.15
2023-01-31T02:55:15.747Z,8.75
2023-01-31T02:57:46.205Z,7.22
2023-01-31T03:00:15.037Z,7.13
2023-01-31T03:02:42.891Z,6.75
2023-01-31T03:05:16.677Z,7.88
2023-01-31T03:07:47.913Z,7.55
2023-01-31T03:10:28.750Z,7.20
2023-01-31T03:13:10.211Z,8.07
2023-01-31T03:16:03.523Z,7.13
2023-01-31T03:18:43.413Z,6.78
2023-01-31T03:21:15.953Z,7.88
2023-01-31T03:23:49.311Z,8.65
2023-01-31T03:26:20.224Z,7.72
2023-01-31T03:28:54.931Z,8.07
2023-01-31T03:31:26.248Z,7.93
2023-01-31T03:33:57.914Z,8.48
2023-01-31T03:36:34.179Z,7.18
2023-01-31T03:39:11.092Z,9.93
2023-01-31T03:41:48.957Z,8.60
2023-01-31T03:44:22.057Z,9.90
2023-01-31T03:46:54.504Z,6.95
2023-01-31T03:49:25.339Z,6.88
2023-01-31T03:52:00.536Z,7.68
2023-01-31T03:54:33.052Z,7.90
2023-01-31T03:57:06.474Z,6.90
2023-01-31T03:59:39.870Z,8.98
2023-01-31T04:02:11.152Z,7.40
2023-01-31T04:04:42.655Z,7.28
2023-01-31T04:07:12.351Z,7.35
2023-01-31T04:09:40.683Z,6.90
2023-01-31T04:12:08.574Z,7.43
2023-01-31T04:14:36.959Z,7.40
2023-01-31T04:17:04.851Z,7.10
2023-01-31T04:19:33.175Z,7.13
2023-01-31T04:22:01.073Z,8.73
2023-01-31T04:24:30.366Z,6.95
2023-01-31T04:26:58.230Z,6.88
2023-01-31T04:29:26.150Z,7.65
2023-01-31T04:31:54.111Z,7.15
2023-01-31T04:34:22.045Z,7.72
2023-01-31T04:36:49.851Z,7.35
2023-01-31T04:39:17.691Z,8.50
2023-01-31T04:41:46.840Z,8.18
2023-01-31T04:44:14.715Z,7.47
2023-01-31T04:46:42.537Z,8.55
2023-01-31T04:49:10.459Z,7.63
2023-01-31T04:51:38.270Z,7.70
2023-01-31T04:54:07.009Z,7.95
2023-01-31T04:56:34.940Z,7.63
2023-01-31T04:59:04.529Z,12.32
2023-01-31T05:01:32.819Z,8.60
2023-01-31T05:04:00.746Z,7.57
2023-01-31T05:06:28.563Z,7.93
2023-01-31T05:08:56.439Z,10.05
2023-01-31T05:11:24.311Z,7.30
2023-01-31T05:13:52.144Z,7.47
2023-01-31T05:16:21.501Z,8.25
2023-01-31T05:18:50.823Z,9.60
2023-01-31T05:21:18.772Z,7.93
2023-01-31T05:23:46.651Z,8.05
2023-01-31T05:26:14.505Z,9.00
2023-01-31T05:28:42.716Z,9.75
2023-01-31T05:31:11.832Z,8.27
2023-01-31T05:33:41.289Z,9.50
2023-01-31T05:36:09.745Z,8.52
2023-01-31T05:38:37.546Z,8.60
2023-01-31T05:41:05.713Z,8.65
2023-01-31T05:43:35.519Z,8.85
2023-01-31T05:46:04.490Z,9.13
2023-01-31T05:48:32.435Z,8.75
2023-01-31T05:51:02.067Z,9.05
2023-01-31T05:53:29.988Z,9.07
2023-01-31T05:55:57.836Z,8.73
2023-01-31T05:58:25.747Z,9.73
2023-01-31T06:00:56.473Z,8.68
2023-01-31T06:03:24.441Z,10.07
2023-01-31T06:05:52.568Z,9.60
2023-01-31T06:08:22.124Z,9.55
2023-01-31T06:10:50.030Z,11.85
2023-01-31T06:13:17.967Z,10.25
2023-01-31T06:15:46.193Z,11.55
2023-01-31T06:18:14.531Z,9.07
2023-01-31T06:20:42.429Z,9.75
2023-01-31T06:23:10.295Z,10.20
2023-01-31T06:25:39.488Z,10.52
2023-01-31T06:28:07.672Z,10.18
2023-01-31T06:30:35.771Z,9.90
2023-01-31T06:33:04.045Z,10.20
2023-01-31T06:35:33.787Z,8.85
2023-01-31T06:38:01.651Z,10.45
2023-01-31T06:40:30.725Z,9.85
2023-01-31T06:43:00.880Z,10.07
2023-01-31T06:45:28.801Z,9.13
2023-01-31T06:47:56.622Z,10.98
2023-01-31T06:50:24.439Z,9.50
2023-01-31T06:52:52.251Z,11.20
2023-01-31T06:55:20.506Z,11.75
2023-01-31T06:57:49.335Z,11.02
2023-01-31T07:00:19.932Z,11.40
2023-01-31T07:02:48.144Z,11.02
2023-01-31T07:05:16.348Z,10.77
2023-01-31T07:07:44.173Z,10.98
2023-01-31T07:10:13.153Z,10.35
2023-01-31T07:12:41.334Z,11.13
2023-01-31T07:15:10.449Z,9.88
2023-01-31T07:17:39.768Z,11.57
2023-01-31T07:20:09.025Z,11.00
2023-01-31T07:22:36.833Z,11.35
2023-01-31T07:25:05.188Z,11.07
2023-01-31T07:27:33.086Z,12.00
2023-01-31T07:30:00.972Z,10.70
2023-01-31T07:32:31.112Z,10.75
2023-01-31T07:35:00.351Z,9.95
2023-01-31T07:37:28.235Z,10.70
2023-01-31T07:39:56.057Z,9.18
2023-01-31T07:42:23.869Z,11.00
2023-01-31T07:44:51.798Z,9.77
2023-01-31T07:47:19.775Z,7.70
2023-01-31T07:49:49.625Z,10.23
2023-01-31T07:52:18.832Z,10.35
2023-01-31T07:54:46.725Z,9.00
2023-01-31T07:57:17.528Z,8.52
2023-01-31T07:59:45.930Z,8.55
2023-01-31T08:02:32.970Z,8.93
2023-01-31T08:05:01.421Z,7.97
2023-01-31T08:07:30.957Z,8.80
2023-01-31T08:09:58.843Z,7.72
2023-01-31T08:12:26.698Z,7.10
2023-01-31T08:14:54.561Z,6.97
2023-01-31T08:17:22.469Z,8.82
2023-01-31T08:19:50.398Z,7.47
2023-01-31T08:22:18.252Z,8.50
2023-01-31T08:24:47.479Z,9.05
2023-01-31T08:27:15.328Z,8.70
2023-01-31T08:29:43.239Z,11.60
2023-01-31T08:32:11.352Z,7.82
2023-01-31T08:34:39.208Z,7.90
2023-01-31T08:37:07.173Z,7.88
2023-01-31T08:39:35.023Z,6.38
2023-01-31T08:42:04.316Z,7.25
2023-01-31T08:44:32.593Z,6.65
2023-01-31T08:47:02.301Z,6.57
2023-01-31T08:49:30.355Z,6.30
2023-01-31T08:51:58.231Z,5.45
2023-01-31T08:54:26.127Z,5.57
2023-01-31T08:56:53.994Z,6.10
2023-01-31T08:59:23.261Z,6.28
2023-01-31T09:01:51.159Z,4.95
2023-01-31T09:04:19.069Z,5.22
2023-01-31T09:06:46.973Z,5.05
2023-01-31T09:09:14.873Z,5.75
2023-01-31T09:11:42.698Z,5.82
2023-01-31T09:14:10.537Z,5.10
2023-01-31T09:16:42.489Z,6.15
2023-01-31T09:19:11.269Z,5.38
2023-01-31T09:21:39.308Z,4.88
2023-01-31T09:24:07.804Z,5.68
2023-01-31T09:26:35.693Z,5.18
2023-01-31T09:29:03.658Z,5.82
2023-01-31T09:31:32.200Z,4.93
2023-01-31T09:34:01.754Z,6.47
2023-01-31T09:36:30.214Z,6.00
2023-01-31T09:38:59.421Z,5.10
2023-01-31T09:41:32.088Z,5.57
2023-01-31T09:44:03.820Z,4.05
2023-01-31T09:46:37.518Z,5.40
2023-01-31T09:49:11.806Z,4.35
2023-01-31T09:51:40.653Z,4.75
2023-01-31T09:54:18.123Z,5.82
2023-01-31T09:56:55.255Z,4.75
2023-01-31T09:59:26.519Z,5.30
2023-01-31T10:02:04.290Z,4.70
2023-01-31T10:04:45.387Z,4.78
2023-01-31T10:07:18.883Z,4.05
2023-01-31T10:09:54.981Z,4.38
2023-01-31T10:12:29.367Z,4.45
2023-01-31T10:15:01.452Z,4.70
2023-01-31T10:17:34.970Z,4.60
2023-01-31T10:20:09.626Z,4.72
2023-01-31T10:22:42.903Z,4.20
2023-01-31T10:25:22.690Z,3.80
2023-01-31T10:27:55.811Z,4.05
2023-01-31T10:30:28.274Z,4.93
2023-01-31T10:33:01.701Z,4.45
2023-01-31T10:35:35.410Z,4.32
2023-01-31T10:38:11.732Z,3.70
2023-01-31T10:40:42.475Z,3.42
2023-01-31T10:43:16.861Z,3.25
2023-01-31T10:45:45.222Z,3.67
2023-01-31T10:48:16.954Z,5.45
2023-01-31T10:50:54.992Z,3.78
2023-01-31T10:53:40.227Z,4.40
2023-01-31T10:56:11.988Z,3.90
2023-01-31T10:58:40.284Z,3.65
2023-01-31T11:01:12.146Z,5.45
2023-01-31T11:03:40.935Z,4.32
2023-01-31T11:06:13.608Z,3.92
2023-01-31T11:08:46.640Z,5.65
2023-01-31T11:11:17.732Z,4.60
2023-01-31T11:13:58.050Z,4.63
2023-01-31T11:16:28.227Z,3.03
2023-01-31T11:18:56.232Z,3.45
2023-01-31T11:21:28.295Z,3.08
2023-01-31T11:24:03.140Z,3.17
2023-01-31T11:26:34.114Z,3.35
2023-01-31T11:29:03.459Z,3.20
2023-01-31T11:31:35.614Z,2.78
2023-01-31T11:34:05.734Z,3.20
2023-01-31T11:36:45.411Z,3.28
2023-01-31T11:39:29.120Z,3.22
2023-01-31T11:41:56.985Z,3.00
2023-01-31T11:44:25.447Z,4.57
2023-01-31T11:46:58.735Z,2.40
2023-01-31T11:49:32.704Z,2.47
2023-01-31T11:52:04.414Z,2.70
2023-01-31T11:54:34.850Z,3.28
2023-01-31T11:57:03.762Z,2.90
2023-01-31T11:59:32.705Z,3.45
2023-01-31T12:02:02.332Z,3.53
2023-01-31T12:04:35.009Z,2.85
2023-01-31T12:07:07.104Z,3.10
2023-01-31T12:09:45.557Z,3.05
2023-01-31T12:12:25.283Z,3.08
2023-01-31T12:14:56.217Z,3.05
2023-01-31T12:17:24.353Z,2.47
2023-01-31T12:20:27.074Z,3.15
2023-01-31T12:23:18.134Z,3.20
2023-01-31T12:25:58.183Z,3.10
2023-01-31T12:28:38.404Z,2.80
2023-01-31T12:31:34.568Z,2.95
2023-01-31T12:34:25.006Z,4.00
2023-01-31T12:37:15.102Z,3.42
2023-01-31T12:39:56.327Z,3.88
2023-01-31T12:42:46.822Z,4.10
2023-01-31T12:45:29.479Z,3.30
2023-01-31T12:48:26.826Z,4.75
2023-01-31T12:51:06.620Z,4.47
2023-01-31T12:53:51.954Z,3.30
2023-01-31T12:56:36.695Z,3.20
2023-01-31T12:59:16.224Z,3.78
2023-01-31T13:01:50.687Z,3.80
2023-01-31T13:04:31.995Z,5.05
2023-01-31T13:07:03.996Z,4.05
2023-01-31T13:09:34.242Z,3.55
2023-01-31T13:12:08.960Z,4.53
2023-01-31T13:14:39.959Z,4.07
2023-01-31T13:17:13.299Z,3.65
2023-01-31T13:19:49.824Z,4.10
2023-01-31T13:22:21.569Z,5.30
2023-01-31T13:24:54.724Z,4.55
2023-01-31T13:27:29.011Z,4.15
2023-01-31T13:30:00.611Z,4.05
2023-01-31T13:32:34.137Z,4.35
2023-01-31T13:35:06.207Z,4.22
2023-01-31T13:37:39.742Z,4.63
2023-01-31T13:40:19.771Z,4.25
2023-01-31T13:42:49.982Z,4.07
2023-01-31T13:45:24.535Z,4.63
2023-01-31T13:47:59.344Z,3.80
2023-01-31T13:50:35.205Z,4.05
2023-01-31T13:53:07.628Z,4.38
2023-01-31T13:55:39.561Z,3.63
2023-01-31T13:58:16.657Z,4.82
2023-01-31T14:00:46.234Z,4.13
2023-01-31T14:03:15.766Z,4.00
2023-01-31T14:05:55.872Z,6.22
2023-01-31T14:08:40.347Z,4.03
2023-01-31T14:11:34.707Z,4.15
2023-01-31T14:14:38.761Z,4.03
2023-01-31T14:17:10.913Z,3.67
2023-01-31T14:20:04.590Z,5.05
2023-01-31T14:22:35.056Z,5.78
2023-01-31T14:25:06.767Z,4.15
2023-01-31T14:27:39.265Z,4.55
2023-01-31T14:30:31.164Z,4.45
2023-01-31T14:33:19.217Z,4.38
2023-01-31T14:36:08.303Z,4.18
2023-01-31T14:38:51.016Z,3.63
2023-01-31T14:41:29.880Z,3.83
2023-01-31T14:44:11.740Z,5.38
2023-01-31T14:47:08.358Z,4.55
2023-01-31T14:50:14.954Z,3.90
2023-01-31T14:53:00.323Z,3.45
2023-01-31T14:55:44.220Z,4.03
2023-01-31T14:58:19.771Z,3.92
2023-01-31T15:00:53.594Z,3.67
2023-01-31T15:03:27.269Z,4.13
2023-01-31T15:05:57.530Z,4.50
2023-01-31T15:09:12.239Z,5.18
2023-01-31T15:11:43.494Z,3.72
2023-01-31T15:14:34.355Z,4.30
2023-01-31T15:17:07.050Z,4.15
2023-01-31T15:19:48.851Z,3.83
2023-01-31T15:22:19.518Z,4.63
2023-01-31T15:24:50.259Z,4.22
2023-01-31T15:27:23.142Z,3.92
2023-01-31T15:29:56.354Z,5.05
2023-01-31T15:32:27.649Z,4.72
2023-01-31T15:35:00.188Z,4.38
2023-01-31T15:37:32.785Z,4.53
2023-01-31T15:40:05.170Z,3.65
2023-01-31T15:42:35.456Z,4.15
2023-01-31T15:45:21.627Z,4.97
2023-01-31T15:47:57.672Z,3.83
2023-01-31T15:50:25.996Z,4.50
2023-01-31T15:52:56.350Z,5.30
2023-01-31T15:55:24.807Z,5.22
2023-01-31T15:57:57.621Z,5.13
2023-01-31T16:00:28.262Z,4.75
2023-01-31T16:03:01.467Z,3.85
2023-01-31T16:05:32.781Z,5.47
2023-01-31T16:08:01.983Z,4.28
2023-01-31T16:10:31.582Z,4.93
2023-01-31T16:13:02.857Z,5.03
2023-01-31T16:15:31.938Z,4.72
2023-01-31T16:18:03.477Z,7.68
2023-01-31T16:20:42.085Z,4.50
2023-01-31T16:23:34.460Z,4.45
2023-01-31T16:26:07.508Z,4.53
2023-01-31T16:28:41.895Z,4.18
2023-01-31T16:31:12.604Z,4.13
2023-01-31T16:33:47.330Z,4.32
2023-01-31T16:36:18.410Z,4.22
2023-01-31T16:38:57.241Z,4.20
2023-01-31T16:41:46.286Z,4.25
2023-01-31T16:44:19.363Z,4.90
2023-01-31T16:46:48.726Z,3.85
2023-01-31T16:49:22.238Z,4.85
2023-01-31T16:51:51.320Z,4.78
2023-01-31T16:54:22.876Z,4.03
2023-01-31T16:57:08.478Z,4.22
2023-01-31T16:59:49.471Z,4.28
2023-01-31T17:02:21.942Z,4.40
2023-01-31T17:04:52.588Z,4.80
2023-01-31T17:07:23.218Z,4.00
2023-01-31T17:09:55.458Z,4.70
2023-01-31T17:12:26.469Z,4.32
2023-01-31T17:15:00.765Z,4.65
2023-01-31T17:17:32.726Z,4.22
2023-01-31T17:20:00.826Z,5.18
2023-01-31T17:22:28.741Z,5.03
2023-01-31T17:24:56.748Z,4.50
2023-01-31T17:27:25.033Z,4.60
2023-01-31T17:29:52.985Z,4.38
2023-01-31T17:32:22.832Z,4.78
2023-01-31T17:34:50.766Z,4.80
2023-01-31T17:37:30.207Z,5.07
2023-01-31T17:39:59.455Z,4.47
2023-01-31T17:42:27.343Z,5.50
2023-01-31T17:44:55.258Z,5.05
2023-01-31T17:47:26.798Z,4.68
2023-01-31T17:49:54.817Z,5.25
2023-01-31T17:52:22.649Z,4.68
2023-01-31T17:54:50.554Z,4.57
2023-01-31T17:57:18.390Z,5.32
2023-01-31T17:59:46.206Z,5.43
2023-01-31T18:02:14.147Z,4.32
2023-01-31T18:04:43.339Z,5.07
2023-01-31T18:07:16.614Z,5.10
2023-01-31T18:09:45.544Z,5.55
2023-01-31T18:12:13.413Z,5.18
2023-01-31T18:14:41.244Z,5.15
2023-01-31T18:17:09.191Z,5.32
2023-01-31T18:19:37.243Z,4.97
2023-01-31T18:22:06.489Z,5.07
2023-01-31T18:24:34.352Z,5.63
2023-01-31T18:27:02.223Z,5.40
2023-01-31T18:29:30.391Z,5.07
2023-01-31T18:32:02.424Z,5.80
2023-01-31T18:34:30.507Z,4.97
2023-01-31T18:36:58.346Z,5.40
2023-01-31T18:39:27.672Z,7.05
2023-01-31T18:41:55.512Z,6.68
2023-01-31T18:44:23.419Z,5.07
2023-01-31T18:46:51.391Z,5.40
2023-01-31T18:49:20.089Z,4.90
2023-01-31T18:51:49.640Z,5.68
2023-01-31T18:54:17.499Z,6.03
2023-01-31T18:56:46.676Z,5.35
2023-01-31T18:59:14.678Z,6.25
2023-01-31T19:01:43.601Z,6.65
2023-01-31T19:04:11.576Z,5.55
2023-01-31T19:06:40.938Z,5.70
2023-01-31T19:09:10.400Z,5.63
2023-01-31T19:11:38.310Z,6.65
2023-01-31T19:14:08.399Z,6.00
2023-01-31T19:16:39.866Z,5.60
2023-01-31T19:19:08.255Z,5.13
2023-01-31T19:21:37.133Z,4.82
2023-01-31T19:24:07.190Z,5.60
2023-01-31T19:26:36.268Z,5.90
2023-01-31T19:29:05.065Z,5.15
2023-01-31T19:31:35.601Z,5.40
2023-01-31T19:34:06.420Z,6.18
2023-01-31T19:36:36.805Z,5.22
2023-01-31T19:39:06.690Z,5.40
2023-01-31T19:41:34.723Z,5.32
2023-01-31T19:44:03.542Z,5.07
2023-01-31T19:46:35.668Z,4.57
2023-01-31T19:49:04.176Z,5.57
2023-01-31T19:51:32.820Z,5.65
2023-01-31T19:54:03.566Z,6.15
2023-01-31T19:56:32.739Z,6.47
2023-01-31T19:59:00.935Z,5.30
2023-01-31T20:01:28.790Z,5.97
2023-01-31T20:03:57.973Z,4.70
2023-01-31T20:06:27.616Z,6.00
2023-01-31T20:08:56.987Z,5.55
2023-01-31T20:11:25.701Z,6.15
2023-01-31T20:13:54.716Z,4.70
2023-01-31T20:16:23.214Z,5.32
2023-01-31T20:18:51.496Z,5.13
2023-01-31T20:21:21.724Z,6.32
2023-01-31T20:23:50.173Z,5.88
2023-01-31T20:26:20.725Z,5.72
2023-01-31T20:28:49.297Z,5.35
2023-01-31T20:31:17.854Z,5.68
2023-01-31T20:33:45.822Z,5.32
2023-01-31T20:36:14.062Z,5.97
2023-01-31T20:38:43.261Z,5.70
2023-01-31T20:41:11.378Z,5.97
2023-01-31T20:43:39.324Z,5.40
2023-01-31T20:46:08.885Z,5.03
2023-01-31T20:48:37.028Z,4.40
2023-01-31T20:51:05.675Z,5.38
2023-01-31T20:53:33.844Z,5.38
2023-01-31T20:56:05.102Z,5.45
2023-01-31T20:58:35.309Z,5.45
2023-01-31T21:01:06.001Z,5.55
2023-01-31T21:03:34.997Z,5.32
2023-01-31T21:06:04.388Z,6.13
2023-01-31T21:08:32.657Z,5.38
2023-01-31T21:11:00.921Z,5.70
2023-01-31T21:13:31.398Z,5.68
2023-01-31T21:16:01.774Z,5.13
2023-01-31T21:18:31.654Z,5.50
2023-01-31T21:21:01.373Z,5.15
2023-01-31T21:23:29.265Z,5.13
2023-01-31T21:26:01.693Z,5.45
2023-01-31T21:28:31.014Z,5.03
2023-01-31T21:31:00.011Z,5.53
2023-01-31T21:33:28.301Z,5.88
2023-01-31T21:35:58.105Z,5.47
2023-01-31T21:38:26.328Z,4.97
2023-01-31T21:41:14.883Z,5.43
2023-01-31T21:43:43.083Z,5.53
2023-01-31T21:46:11.155Z,5.82
2023-01-31T21:48:40.103Z,5.97
2023-01-31T21:51:09.777Z,6.18
2023-01-31T21:53:37.939Z,6.90
2023-01-31T21:56:07.608Z,6.57
2023-01-31T21:58:36.711Z,6.55
2023-01-31T22:01:07.376Z,6.75
2023-01-31T22:03:35.742Z,7.00
2023-01-31T22:06:04.336Z,7.10
2023-01-31T22:08:32.630Z,8.25
2023-01-31T22:11:04.567Z,7.45
2023-01-31T22:13:33.020Z,6.40
2023-01-31T22:16:02.215Z,6.03
2023-01-31T22:18:31.883Z,7.05
2023-01-31T22:21:04.372Z,7.05
2023-01-31T22:23:32.784Z,6.45
2023-01-31T22:26:04.314Z,7.30
2023-01-31T22:28:32.197Z,7.30
2023-01-31T22:31:02.095Z,8.02
2023-01-31T22:33:32.385Z,6.80
2023-01-31T22:36:00.312Z,6.47
2023-01-31T22:38:28.618Z,7.15
2023-01-31T22:40:59.261Z,7.05
2023-01-31T22:43:27.805Z,7.82
2023-01-31T22:45:58.300Z,7.53
2023-01-31T22:48:27.025Z,7.40
2023-01-31T22:50:57.196Z,8.30
2023-01-31T22:53:25.526Z,7.88
2023-01-31T22:55:53.704Z,7.85
2023-01-31T22:58:21.823Z,8.13
2023-01-31T23:00:49.816Z,7.88
2023-01-31T23:03:17.672Z,8.85
2023-01-31T23:05:45.888Z,8.55
2023-01-31T23:08:16.311Z,8.48
2023-01-31T23:10:44.755Z,9.30
2023-01-31T23:13:13.151Z,10.00
2023-01-31T23:15:41.554Z,7.68
2023-01-31T23:18:09.485Z,8.63
2023-01-31T23:20:37.344Z,8.85
2023-01-31T23:23:05.175Z,9.15
2023-01-31T23:25:34.527Z,9.02
2023-01-31T23:28:03.132Z,13.10
2023-01-31T23:30:31.102Z,7.93
2023-01-31T23:32:59.006Z,8.93
2023-01-31T23:35:26.838Z,7.57
2023-01-31T23:37:54.917Z,7.60
2023-01-31T23:40:23.153Z,6.65
2023-01-31T23:42:52.548Z,7.22
2023-01-31T23:45:20.363Z,7.65
2023-01-31T23:47:50.361Z,7.00
2023-01-31T23:50:19.004Z,5.88
2023-01-31T23:52:47.116Z,7.38
2023-01-31T23:55:14.974Z,6.68
2023-01-31T23:57:42.773Z,6.60
